createdAt,value
2023-04-08T00:02:39.148Z,100744.28
2023-04-08T00:07:44.104Z,100741.72
2023-04-08T00:12:48.041Z,100739.03
2023-04-08T00:17:50.867Z,100741.84
2023-04-08T00:22:55.045Z,100734.88
2023-04-08T00:27:57.855Z,100734.22
2023-04-08T00:33:01.715Z,100735.19
2023-04-08T00:38:08.035Z,100739.59
2023-04-08T00:43:10.853Z,100739.41
2023-04-08T00:48:13.720Z,100740.47
2023-04-08T00:53:19.083Z,100739.72
2023-04-08T00:58:21.820Z,100731.78
2023-04-08T01:03:28.427Z,100735.41
2023-04-08T01:08:32.659Z,100740.69
2023-04-08T01:13:36.276Z,100734.34
2023-04-08T01:18:39.378Z,100741.22
2023-04-08T01:23:56.572Z,100740.69
2023-04-08T01:29:01.771Z,100744.13
2023-04-08T01:34:06.312Z,100748.50
2023-04-08T01:39:09.279Z,100738.88
2023-04-08T01:44:13.402Z,100740.78
2023-04-08T01:49:16.294Z,100739.94
2023-04-08T01:54:19.086Z,100736.50
2023-04-08T01:59:23.565Z,100732.19
2023-04-08T02:04:26.434Z,100731.69
2023-04-08T02:09:29.485Z,100731.03
2023-04-08T02:14:34.428Z,100735.78
2023-04-08T02:19:38.125Z,100727.19
2023-04-08T02:24:40.902Z,100740.97
2023-04-08T02:29:45.105Z,100733.25
2023-04-08T02:34:47.864Z,100734.53
2023-04-08T02:39:50.708Z,100741.00
2023-04-08T02:44:54.844Z,100744.97
2023-04-08T02:49:58.867Z,100749.84
2023-04-08T02:55:01.623Z,100751.75
2023-04-08T03:00:07.177Z,100760.13
2023-04-08T03:05:10.625Z,100755.94
2023-04-08T03:10:13.466Z,100760.03
2023-04-08T03:15:17.588Z,100758.53
2023-04-08T03:20:20.340Z,100763.38
2023-04-08T03:25:23.109Z,100771.72
2023-04-08T03:30:27.512Z,100783.50
2023-04-08T03:35:30.333Z,100779.41
2023-04-08T03:40:33.107Z,100785.09
2023-04-08T03:45:37.218Z,100784.38
2023-04-08T03:50:40.216Z,100776.63
2023-04-08T03:55:42.956Z,100773.19
2023-04-08T04:00:47.111Z,100779.81
2023-04-08T04:05:49.858Z,100787.22
2023-04-08T04:10:52.611Z,100797.09
2023-04-08T04:15:57.522Z,100789.28
2023-04-08T04:21:00.336Z,100789.47
2023-04-08T04:26:03.138Z,100803.81
2023-04-08T04:31:07.350Z,100801.16
2023-04-08T04:36:10.126Z,100790.66
2023-04-08T04:41:13.173Z,100804.16
2023-04-08T04:46:17.411Z,100818.53
2023-04-08T04:51:20.585Z,100812.50
2023-04-08T04:56:23.405Z,100808.09
2023-04-08T05:01:28.883Z,100821.72
2023-04-08T05:06:31.905Z,100826.13
2023-04-08T05:11:34.815Z,100832.53
2023-04-08T05:16:39.213Z,100838.88
2023-04-08T05:21:42.494Z,100842.59
2023-04-08T05:26:45.632Z,100844.41
2023-04-08T05:31:49.774Z,100841.84
2023-04-08T05:36:52.749Z,100839.25
2023-04-08T05:41:55.542Z,100850.84
2023-04-08T05:47:00.499Z,100841.94
2023-04-08T05:52:03.703Z,100857.16
2023-04-08T05:57:08.103Z,100854.50
2023-04-08T06:02:13.383Z,100857.28
2023-04-08T06:07:16.247Z,100869.81
2023-04-08T06:12:19.222Z,100875.25
2023-04-08T06:17:23.448Z,100873.44
2023-04-08T06:22:26.511Z,100875.19
2023-04-08T06:27:29.309Z,100885.91
2023-04-08T06:32:33.519Z,100897.56
2023-04-08T06:37:38.511Z,100894.97
2023-04-08T06:42:44.875Z,100903.81
2023-04-08T06:47:57.825Z,100911.06
2023-04-08T06:53:00.730Z,100919.97
2023-04-08T06:58:03.501Z,100920.75
2023-04-08T07:03:07.703Z,100916.63
2023-04-08T07:08:10.514Z,100918.16
2023-04-08T07:13:13.276Z,100936.34
2023-04-08T07:18:17.845Z,100939.34
2023-04-08T07:23:20.662Z,100944.25
2023-04-08T07:28:23.420Z,100939.41
2023-04-08T07:33:28.321Z,100944.50
2023-04-08T07:38:31.034Z,100951.41
2023-04-08T07:43:34.447Z,100939.88
2023-04-08T07:48:38.749Z,100951.84
2023-04-08T07:53:41.570Z,100941.28
2023-04-08T07:58:44.550Z,100952.91
2023-04-08T08:03:49.054Z,100955.09
2023-04-08T08:08:52.014Z,100955.66
2023-04-08T08:13:54.850Z,100960.41
2023-04-08T08:18:59.470Z,100955.50
2023-04-08T08:24:02.305Z,100969.78
2023-04-08T08:29:06.478Z,100971.41
2023-04-08T08:34:10.709Z,100976.88
2023-04-08T08:39:13.505Z,100976.28
2023-04-08T08:44:16.283Z,100983.16
2023-04-08T08:49:20.568Z,100981.97
2023-04-08T08:54:23.319Z,100994.34
2023-04-08T08:59:26.191Z,100994.25
2023-04-08T09:04:30.801Z,101001.13
2023-04-08T09:09:48.954Z,101004.59
2023-04-08T09:14:51.890Z,101006.63
2023-04-08T09:20:11.806Z,101006.22
2023-04-08T09:25:24.267Z,101012.44
2023-04-08T09:30:27.836Z,101008.91
2023-04-08T09:35:32.122Z,101011.81
2023-04-08T09:40:35.808Z,101023.41
2023-04-08T09:45:38.844Z,101025.22
2023-04-08T09:50:44.692Z,101019.34
2023-04-08T09:55:48.269Z,101027.94
2023-04-08T10:00:51.481Z,101027.53
2023-04-08T10:05:56.570Z,101036.31
2023-04-08T10:10:59.336Z,101032.56
2023-04-08T10:16:20.796Z,101035.25
2023-04-08T10:50:32.313Z,101057.47
2023-04-08T10:55:35.126Z,101058.50
2023-04-08T11:00:38.476Z,101063.91
2023-04-08T11:05:43.676Z,101059.94
2023-04-08T11:10:46.734Z,101051.69
2023-04-08T11:15:49.506Z,101042.16
2023-04-08T11:20:53.784Z,101044.50
2023-04-08T11:25:56.705Z,101047.88
2023-04-08T11:30:59.600Z,101055.28
2023-04-08T11:36:04.762Z,101054.41
2023-04-08T11:41:07.824Z,101047.44
2023-04-08T11:46:12.569Z,101052.69
2023-04-08T11:51:17.328Z,101049.09
2023-04-08T11:56:20.265Z,101047.03
2023-04-08T12:01:23.191Z,101053.84
2023-04-08T12:06:28.378Z,101052.88
2023-04-08T12:11:31.376Z,101061.03
2023-04-08T12:16:34.239Z,101060.91
2023-04-08T12:21:38.462Z,101068.25
2023-04-08T12:26:41.434Z,101060.69
2023-04-08T12:31:44.481Z,101069.50
2023-04-08T12:36:49.753Z,101073.16
2023-04-08T12:41:52.592Z,101061.56
2023-04-08T12:46:55.696Z,101066.31
2023-04-08T12:51:59.942Z,101059.00
2023-04-08T12:57:02.960Z,101058.13
2023-04-08T13:02:05.948Z,101058.88
2023-04-08T13:07:10.306Z,101059.72
2023-04-08T13:12:13.151Z,101060.69
2023-04-08T13:17:16.343Z,101055.56
2023-04-08T13:22:20.723Z,101054.66
2023-04-08T13:27:23.541Z,101051.97
2023-04-08T13:32:26.433Z,101063.59
2023-04-08T13:37:30.617Z,101065.09
2023-04-08T13:42:33.382Z,101065.00
2023-04-08T13:47:38.083Z,101058.66
2023-04-08T13:52:42.392Z,101059.19
2023-04-08T13:57:45.190Z,101053.94
2023-04-08T14:02:48.115Z,101053.09
2023-04-08T14:07:52.359Z,101067.91
2023-04-08T14:12:55.577Z,101067.47
2023-04-08T14:17:58.405Z,101064.03
2023-04-08T14:23:02.550Z,101070.13
2023-04-08T14:28:06.304Z,101070.53
2023-04-08T14:33:09.223Z,101069.78
2023-04-08T14:38:13.548Z,101074.66
2023-04-08T14:43:16.270Z,101075.31
2023-04-08T14:48:19.064Z,101071.13
2023-04-08T14:53:23.378Z,101084.13
2023-04-08T14:58:26.248Z,101080.22
2023-04-08T15:03:29.219Z,101077.69
2023-04-08T15:08:34.889Z,101086.84
2023-04-08T15:13:37.752Z,101081.47
2023-04-08T15:18:41.056Z,101082.34
2023-04-08T15:23:45.826Z,101081.53
2023-04-08T15:28:48.746Z,101083.47
2023-04-08T15:33:52.295Z,101083.38
2023-04-08T15:38:56.813Z,101083.22
2023-04-08T15:43:59.655Z,101097.88
2023-04-08T15:49:02.406Z,101102.28
2023-04-08T15:54:06.784Z,101116.16
2023-04-08T15:59:09.525Z,101117.47
2023-04-08T16:04:12.715Z,101124.44
2023-04-08T16:09:18.682Z,101119.31
2023-04-08T16:14:21.802Z,101120.47
2023-04-08T16:19:24.614Z,101124.69
2023-04-08T16:24:28.838Z,101133.25
2023-04-08T16:29:32.641Z,101151.78
2023-04-08T16:34:36.056Z,101149.88
2023-04-08T16:39:40.396Z,101145.94
2023-04-08T16:44:43.189Z,101168.41
2023-04-08T16:49:45.947Z,101167.91
2023-04-08T16:54:50.111Z,101183.66
2023-04-08T16:59:53.117Z,101186.28
2023-04-08T17:04:55.897Z,101182.41
2023-04-08T17:10:00.326Z,101182.50
2023-04-08T17:15:03.307Z,101192.09
2023-04-08T17:20:07.390Z,101192.34
2023-04-08T17:25:12.855Z,101195.16
2023-04-08T17:30:15.656Z,101204.22
2023-04-08T17:35:18.604Z,101212.28
2023-04-08T17:40:22.836Z,101216.44
2023-04-08T17:45:25.828Z,101220.53
2023-04-08T17:50:28.577Z,101232.59
2023-04-08T17:55:33.205Z,101245.47
2023-04-08T18:00:36.267Z,101237.06
2023-04-08T18:05:39.091Z,101247.06
2023-04-08T18:10:43.672Z,101248.16
2023-04-08T18:15:47.049Z,101256.41
2023-04-08T18:20:49.776Z,101273.81
2023-04-08T18:25:54.001Z,101272.00
2023-04-08T18:30:56.905Z,101274.91
2023-04-08T18:36:07.000Z,101282.84
2023-04-08T18:41:11.529Z,101289.19
2023-04-08T18:46:14.373Z,101283.91
2023-04-08T18:51:17.687Z,101290.25
2023-04-08T18:56:22.128Z,101290.81
2023-04-08T19:01:25.029Z,101291.66
2023-04-08T19:06:28.593Z,101283.59
2023-04-08T19:11:32.818Z,101295.22
2023-04-08T19:16:35.697Z,101297.03
2023-04-08T19:21:38.541Z,101284.47
2023-04-08T19:26:42.711Z,101284.47
2023-04-08T19:31:45.674Z,101288.88
2023-04-08T19:36:48.815Z,101286.94
2023-04-08T19:41:52.955Z,101282.41
2023-04-08T19:46:57.665Z,101281.66
2023-04-08T19:52:01.167Z,101290.69
2023-04-08T19:57:08.110Z,101293.63
2023-04-08T20:02:10.957Z,101298.44
2023-04-08T20:07:13.846Z,101302.78
2023-04-08T20:12:18.125Z,101304.78
2023-04-08T20:17:21.681Z,101309.88
2023-04-08T20:22:24.570Z,101319.31
2023-04-08T20:27:28.724Z,101317.72
2023-04-08T20:32:31.588Z,101315.25
2023-04-08T20:37:34.488Z,101311.81
2023-04-08T20:42:38.662Z,101322.13
2023-04-08T20:47:41.453Z,101320.31
2023-04-08T20:52:44.262Z,101331.16
2023-04-08T20:57:48.452Z,101327.50
2023-04-08T21:02:51.560Z,101317.84
2023-04-08T21:07:54.600Z,101316.56
2023-04-08T21:12:59.917Z,101317.31
2023-04-08T21:18:02.835Z,101316.75
2023-04-08T21:23:07.102Z,101319.44
2023-04-08T21:28:11.210Z,101318.94
2023-04-08T21:33:14.408Z,101325.38
2023-04-08T21:38:17.223Z,101325.16
2023-04-08T21:43:21.843Z,101315.28
2023-04-08T21:48:24.807Z,101316.56
2023-04-08T21:53:27.636Z,101324.94
2023-04-08T21:58:31.710Z,101321.34
2023-04-08T22:03:34.643Z,101321.97
2023-04-08T22:08:37.474Z,101320.16
2023-04-08T22:13:41.619Z,101322.50
2023-04-08T22:18:44.383Z,101317.13
2023-04-08T22:23:47.101Z,101316.47
2023-04-08T22:28:51.539Z,101314.53
2023-04-08T22:33:54.663Z,101321.66
2023-04-08T22:38:57.442Z,101317.13
2023-04-08T22:44:01.598Z,101324.03
2023-04-08T22:49:04.395Z,101329.63
2023-04-08T22:54:07.200Z,101328.78
2023-04-08T22:59:11.369Z,101336.75
2023-04-08T23:04:14.202Z,101340.41
2023-04-08T23:09:17.092Z,101339.31
2023-04-08T23:14:21.237Z,101336.63
2023-04-08T23:19:24.009Z,101347.38
2023-04-08T23:24:26.780Z,101336.63
2023-04-08T23:29:31.458Z,101328.56
2023-04-08T23:34:36.299Z,101337.28
2023-04-08T23:39:39.280Z,101334.69
2023-04-08T23:44:43.391Z,101330.28
2023-04-08T23:49:46.175Z,101324.91
2023-04-08T23:54:50.788Z,101323.66
2023-04-08T23:59:54.937Z,101332.84
